KDLZ

Delaware Municipal - Jim Moore Field Airport

Delaware, Ohio, USA
METAR KDLZ 211615Z AUTO 00000KT 10SM CLR M18/M22 A3059 RMK AO2
Observed Flight Rules
Jan-21 @ 16:15 UTC (14 minutes ago) Visual Flight Rules
Visibility Clouds
10 miles
  • Clear skies
Temperatures Readings
Current -18°C / -0°F
Dewpoint -22°C / -8°F
Humidity 71%
Altimeter 30.59" Hg
Pressure 1035.91 hPa
Elevation 289
METAR KDLZ 211615Z AUTO 00000KT 10SM CLR M18/M22 A3059 RMK AO2
Observed Flight Rules
Jan-21 @ 16:15 UTC
(14 minutes ago)
VFR
Clouds
  • Clear skies
Temperature Dewpoint
-18°C / -0°F -22°C / -8°F
Humidity Altimeter Pressure
71% 30.59" Hg 1035.91 hPa